Time;durP1;ratioP1;P1;durP2;ratioP2;P2;SDS_P1;SDS_P2;PMS_P1;PMS_P2;Temp;Humidity;BMP_temperature;BMP_pressure;BME280_temperature;BME280_humidity;BME280_pressure;Samples;Min_cycle;Max_cycle;Signal;HPM_P1;HPM_P2
2024/02/01 00:00:21;;;;;;;7.90;6.60;;;;;;;14.63;52.18;99948.72;6721316;29;20232;-86
2024/02/01 00:03:44;;;;;;;8.13;6.93;;;;;;;14.65;52.02;99949.34;6725959;29;20245;-82
2024/02/01 00:07:06;;;;;;;13.57;7.80;;;;;;;14.52;52.42;99946.59;6727036;29;20216;-82
2024/02/01 00:10:27;;;;;;;8.70;6.83;;;;;;;14.43;52.04;99940.50;6712271;29;21050;-82
2024/02/01 00:13:49;;;;;;;8.20;6.30;;;;;;;14.39;52.69;99951.97;6717015;29;20217;-83
2024/02/01 00:17:10;;;;;;;9.17;5.97;;;;;;;14.44;52.59;99953.03;6716431;29;20217;-82
2024/02/01 00:20:35;;;;;;;10.00;6.00;;;;;;;14.72;51.89;99942.06;6716577;29;20271;-85
2024/02/01 00:23:57;;;;;;;9.90;5.63;;;;;;;14.79;50.99;99941.03;6712147;29;20237;-81
2024/02/01 00:27:18;;;;;;;8.60;5.60;;;;;;;14.33;52.31;99939.19;6721119;29;20617;-81
2024/02/01 00:30:41;;;;;;;6.50;5.00;;;;;;;14.62;51.29;99928.06;6724730;29;20851;-82
2024/02/01 00:34:03;;;;;;;6.73;5.00;;;;;;;14.68;51.35;99929.94;6727285;29;20277;-83
2024/02/01 00:37:26;;;;;;;7.73;4.40;;;;;;;14.41;51.49;99915.44;6712396;29;20711;-82
2024/02/01 00:40:47;;;;;;;6.70;5.20;;;;;;;14.68;51.28;99940.81;6712065;29;20718;-81
2024/02/01 00:44:09;;;;;;;6.40;5.03;;;;;;;14.70;50.88;99936.81;6713812;29;20361;-82
2024/02/01 00:47:30;;;;;;;9.70;5.97;;;;;;;14.46;51.84;99928.41;6728027;29;20245;-81
2024/02/01 00:50:52;;;;;;;5.17;4.67;;;;;;;14.40;52.01;99931.91;6713203;29;20265;-81
2024/02/01 00:54:14;;;;;;;6.60;5.10;;;;;;;14.54;51.17;99936.34;6732538;29;20696;-81
2024/02/01 00:57:36;;;;;;;9.00;4.97;;;;;;;14.83;50.99;99934.16;6730666;29;20752;-82
2024/02/01 01:00:57;;;;;;;8.20;5.07;;;;;;;14.45;51.80;99932.97;6716549;29;20717;-80
2024/02/01 01:04:19;;;;;;;7.93;5.03;;;;;;;14.36;51.82;99930.66;6721832;29;20296;-81
2024/02/01 01:07:41;;;;;;;6.50;4.83;;;;;;;14.71;51.01;99924.09;6722372;29;20698;-81
2024/02/01 01:11:04;;;;;;;7.27;5.43;;;;;;;14.34;51.69;99916.44;6730120;29;20704;-80
2024/02/01 01:14:25;;;;;;;7.33;5.43;;;;;;;14.58;51.47;99922.16;6714316;29;20294;-81
2024/02/01 01:17:49;;;;;;;5.83;4.90;;;;;;;14.51;51.30;99937.59;6714761;29;20250;-81
2024/02/01 01:21:10;;;;;;;8.73;5.27;;;;;;;14.36;51.92;99957.78;6718859;29;20247;-81
2024/02/01 01:24:32;;;;;;;12.73;5.90;;;;;;;14.44;52.25;99971.16;6730393;29;20256;-81
2024/02/01 01:27:55;;;;;;;10.60;6.33;;;;;;;14.34;52.62;99963.41;6725514;29;20225;-82
2024/02/01 01:31:17;;;;;;;9.10;6.27;;;;;;;14.50;52.08;99968.50;6722400;29;20242;-82
2024/02/01 01:34:38;;;;;;;7.87;6.50;;;;;;;14.54;51.66;99945.34;6733279;29;20690;-82
2024/02/01 01:38:00;;;;;;;7.47;6.70;;;;;;;13.84;53.69;99963.69;6723462;29;20217;-82
2024/02/01 01:41:21;;;;;;;12.43;7.27;;;;;;;14.18;53.53;99954.72;6724684;29;20269;-82
2024/02/01 01:44:44;;;;;;;9.73;7.37;;;;;;;14.08;53.72;99957.81;6712494;29;20216;-81
2024/02/01 01:48:06;;;;;;;8.47;6.60;;;;;;;14.38;53.24;99970.09;6711310;29;20296;-82
2024/02/01 01:51:28;;;;;;;10.50;7.37;;;;;;;14.28;53.23;99960.66;6723272;29;20261;-82
2024/02/01 01:54:49;;;;;;;9.20;6.67;;;;;;;14.35;53.52;99959.66;6706999;29;20299;-82
2024/02/01 01:58:11;;;;;;;8.13;6.67;;;;;;;14.09;53.58;99939.66;6701246;29;20694;-82
2024/02/01 02:01:35;;;;;;;10.30;7.00;;;;;;;14.23;54.03;99969.38;6715256;29;20324;-82
2024/02/01 02:04:57;;;;;;;9.93;6.77;;;;;;;14.46;53.32;99960.97;6699800;29;20216;-82
2024/02/01 02:08:19;;;;;;;8.93;7.10;;;;;;;14.55;53.07;99948.88;6724865;29;20250;-83
2024/02/01 02:11:43;;;;;;;9.50;7.53;;;;;;;14.42;53.31;99960.53;6715558;29;20205;-82
2024/02/01 02:15:05;;;;;;;8.27;7.17;;;;;;;14.43;53.21;99931.50;6713384;29;20224;-82
2024/02/01 02:18:28;;;;;;;14.63;7.33;;;;;;;14.39;53.69;99952.78;6710340;29;20249;-83
2024/02/01 02:21:52;;;;;;;11.47;8.27;;;;;;;14.22;54.00;99953.34;6706525;29;20257;-81
2024/02/01 02:25:14;;;;;;;8.90;8.00;;;;;;;13.65;55.72;99945.41;6712569;29;20302;-82
2024/02/01 02:28:38;;;;;;;8.87;7.97;;;;;;;13.89;55.35;99949.53;6702804;29;20258;-81
2024/02/01 02:32:00;;;;;;;10.70;7.03;;;;;;;13.61;55.98;99951.41;6717282;29;20213;-82
2024/02/01 02:35:21;;;;;;;13.80;8.27;;;;;;;13.82;55.17;99948.66;6718749;29;20271;-82
2024/02/01 02:38:44;;;;;;;11.57;7.27;;;;;;;13.48;55.77;99962.16;6709179;29;20771;-83
2024/02/01 02:42:06;;;;;;;9.00;7.30;;;;;;;13.66;55.36;99974.19;6707768;29;20698;-83
2024/02/01 02:45:27;;;;;;;9.20;7.00;;;;;;;13.78;55.09;99974.47;6716816;29;20323;-81
2024/02/01 02:48:52;;;;;;;9.93;7.23;;;;;;;13.72;54.74;99954.44;6708519;29;20617;-83
2024/02/01 02:52:13;;;;;;;10.33;7.77;;;;;;;13.97;54.42;99963.78;6705002;29;20296;-82
2024/02/01 02:55:36;;;;;;;10.57;7.00;;;;;;;13.73;54.57;99941.69;6696472;29;20618;-82
2024/02/01 02:58:58;;;;;;;8.77;7.83;;;;;;;13.63;55.00;99950.19;6695733;29;20320;-82
2024/02/01 03:02:19;;;;;;;11.87;8.00;;;;;;;13.51;55.40;99950.94;6712597;29;20276;-83
2024/02/01 03:05:41;;;;;;;8.30;7.50;;;;;;;13.61;55.10;99954.97;6684114;29;20663;-83
2024/02/01 03:09:03;;;;;;;9.17;7.13;;;;;;;13.52;55.13;99939.88;6691187;29;20252;-83
2024/02/01 03:12:26;;;;;;;8.10;6.50;;;;;;;13.63;54.00;99933.91;6703974;29;20577;-83
2024/02/01 03:15:48;;;;;;;7.40;5.87;;;;;;;13.67;52.63;99935.22;6704384;29;20546;-83
2024/02/01 03:19:11;;;;;;;8.93;5.60;;;;;;;13.49;52.67;99928.59;6703550;29;20714;-82
2024/02/01 03:22:33;;;;;;;7.33;5.43;;;;;;;13.70;52.23;99933.97;6704106;29;20239;-82
2024/02/01 03:25:58;;;;;;;6.00;5.30;;;;;;;13.61;52.00;99910.75;6709843;29;20792;-84
2024/02/01 03:29:21;;;;;;;5.40;4.70;;;;;;;13.52;51.42;99898.41;6713362;29;20225;-83
2024/02/01 03:32:42;;;;;;;6.73;4.73;;;;;;;14.00;50.48;99903.75;6714874;29;20216;-82
2024/02/01 03:36:05;;;;;;;6.80;5.10;;;;;;;14.40;49.48;99894.75;6717111;29;20260;-83
2024/02/01 03:39:26;;;;;;;5.87;4.60;;;;;;;13.95;49.99;99895.38;6709741;29;20727;-82
2024/02/01 03:42:48;;;;;;;5.73;4.53;;;;;;;13.90;49.78;99897.84;6722256;29;20277;-84
2024/02/01 03:46:14;;;;;;;6.30;4.50;;;;;;;14.15;49.61;99911.75;6716225;29;20245;-82
2024/02/01 03:49:39;;;;;;;5.67;4.37;;;;;;;14.35;49.09;99907.28;6723582;29;20280;-83
2024/02/01 03:53:00;;;;;;;5.50;4.57;;;;;;;14.51;48.39;99894.16;6707343;29;20213;-83
2024/02/01 03:56:23;;;;;;;6.13;4.13;;;;;;;14.42;48.60;99914.41;6719774;29;20712;-83
2024/02/01 03:59:45;;;;;;;4.40;4.00;;;;;;;14.10;49.34;99919.66;6719442;29;20243;-83
2024/02/01 04:03:13;;;;;;;5.17;3.90;;;;;;;14.23;49.19;99917.03;6712374;29;20252;-83
2024/02/01 04:06:35;;;;;;;5.70;3.93;;;;;;;14.51;48.26;99910.44;6717288;29;20213;-83
2024/02/01 04:09:57;;;;;;;4.47;4.07;;;;;;;14.36;48.89;99898.94;6722196;29;20761;-83
2024/02/01 04:13:18;;;;;;;4.97;3.77;;;;;;;14.56;48.44;99915.25;6719783;29;20260;-82
2024/02/01 04:16:40;;;;;;;5.13;4.10;;;;;;;14.30;49.37;99913.31;6710606;29;20305;-83
2024/02/01 04:20:03;;;;;;;5.43;4.93;;;;;;;14.22;49.20;99889.03;6726826;29;20766;-82
2024/02/01 04:23:25;;;;;;;4.63;4.13;;;;;;;14.07;50.01;99917.31;6727032;29;20246;-83
2024/02/01 04:26:47;;;;;;;6.97;4.53;;;;;;;14.24;49.64;99911.41;6719253;29;20230;-82
2024/02/01 04:30:10;;;;;;;5.60;4.10;;;;;;;14.51;49.13;99915.06;6717722;29;20237;-82
2024/02/01 04:33:32;;;;;;;6.03;4.23;;;;;;;14.55;49.09;99905.44;6722982;29;20555;-83
2024/02/01 04:36:56;;;;;;;5.20;4.37;;;;;;;14.64;48.83;99904.25;6710975;29;20213;-82
2024/02/01 04:40:17;;;;;;;6.30;3.97;;;;;;;14.33;49.50;99895.78;6722930;29;20226;-83
2024/02/01 04:43:40;;;;;;;4.40;4.00;;;;;;;14.62;48.94;99906.34;6714708;29;20229;-82
2024/02/01 04:47:02;;;;;;;4.70;4.30;;;;;;;14.38;49.45;99896.00;6721071;29;20217;-83
2024/02/01 04:50:23;;;;;;;5.13;4.67;;;;;;;14.61;48.74;99893.78;6712663;29;20276;-82
2024/02/01 04:53:46;;;;;;;5.20;4.10;;;;;;;14.34;49.54;99884.72;6735579;29;20213;-82
2024/02/01 04:57:13;;;;;;;4.40;3.83;;;;;;;14.50;49.39;99894.38;6724466;29;20296;-82
2024/02/01 05:00:34;;;;;;;6.73;4.13;;;;;;;14.49;49.34;99885.41;6723974;29;20780;-82
2024/02/01 05:03:57;;;;;;;4.30;3.90;;;;;;;14.63;48.58;99889.00;6730689;29;20290;-81
2024/02/01 05:07:18;;;;;;;6.10;3.83;;;;;;;14.55;48.76;99886.47;6720658;29;20616;-82
2024/02/01 05:10:44;;;;;;;6.67;4.17;;;;;;;14.67;48.12;99880.25;6721199;29;20253;-83
2024/02/01 05:14:10;;;;;;;4.67;3.77;;;;;;;14.30;48.20;99860.91;6714018;29;20278;-82
2024/02/01 05:17:33;;;;;;;4.20;3.67;;;;;;;14.47;47.96;99883.94;6721915;29;20213;-82
2024/02/01 05:20:54;;;;;;;4.97;4.23;;;;;;;14.40;48.13;99883.91;6724410;29;20240;-82
2024/02/01 05:24:16;;;;;;;6.20;3.63;;;;;;;14.41;48.22;99882.88;6727996;29;20257;-82
2024/02/01 05:27:39;;;;;;;6.97;3.73;;;;;;;13.83;49.58;99877.97;6708866;29;20735;-82
2024/02/01 05:31:00;;;;;;;4.53;4.00;;;;;;;14.17;49.35;99880.63;6721927;29;20270;-82
2024/02/01 05:34:22;;;;;;;4.23;3.80;;;;;;;14.51;48.89;99880.59;6715209;29;20276;-82
2024/02/01 05:37:46;;;;;;;5.70;3.97;;;;;;;14.13;49.71;99873.97;6734429;29;20210;-83
2024/02/01 05:41:11;;;;;;;5.90;4.33;;;;;;;13.93;50.01;99864.88;6715659;29;20252;-82
2024/02/01 05:44:34;;;;;;;4.47;3.70;;;;;;;14.15;49.72;99839.34;6708930;29;20242;-82
2024/02/01 05:47:56;;;;;;;7.83;4.07;;;;;;;14.35;49.87;99858.44;6721262;29;20354;-82
2024/02/01 05:51:17;;;;;;;7.67;4.23;;;;;;;14.33;49.89;99855.91;6726506;29;20248;-82
2024/02/01 05:54:39;;;;;;;4.40;4.00;;;;;;;13.99;50.40;99865.97;6726816;29;20289;-82
2024/02/01 05:58:05;;;;;;;6.57;4.27;;;;;;;14.18;50.66;99868.78;6708410;29;20305;-82
2024/02/01 06:01:28;;;;;;;5.60;4.40;;;;;;;14.21;50.63;99873.81;6713504;29;20236;-82
2024/02/01 06:04:49;;;;;;;5.50;4.47;;;;;;;13.94;51.46;99871.16;6708244;29;20237;-82
2024/02/01 06:08:12;;;;;;;8.07;4.30;;;;;;;14.13;51.03;99890.25;6720483;29;20648;-81
2024/02/01 06:11:34;;;;;;;4.83;4.37;;;;;;;13.75;52.13;99890.84;6715011;29;20246;-82
2024/02/01 06:14:56;;;;;;;7.10;4.33;;;;;;;14.13;51.76;99897.53;6715414;29;20246;-82
2024/02/01 06:18:19;;;;;;;5.00;4.43;;;;;;;13.82;52.59;99903.44;6716331;29;20239;-83
2024/02/01 06:21:41;;;;;;;4.23;3.80;;;;;;;13.49;54.04;99921.31;6716049;29;20271;-82
2024/02/01 06:25:03;;;;;;;6.80;4.90;;;;;;;13.48;54.51;99924.22;6717099;29;20274;-82
2024/02/01 06:28:24;;;;;;;8.47;5.03;;;;;;;13.54;55.04;99909.88;6714197;29;20251;-82
2024/02/01 06:31:46;;;;;;;7.63;5.17;;;;;;;13.73;54.45;99915.44;6711271;29;20277;-83
2024/02/01 06:35:16;;;;;;;7.37;5.17;;;;;;;14.07;54.08;99907.31;6705439;29;20268;-82
2024/02/01 06:39:06;;;;;;;8.00;5.60;;;;;;;13.79;55.96;99922.78;6727505;29;20235;-82
2024/02/01 06:42:32;;;;;;;8.33;5.73;;;;;;;13.99;55.61;99939.19;6730873;29;20212;-82
2024/02/01 06:46:01;;;;;;;9.57;5.80;;;;;;;13.94;55.67;99923.53;6729368;29;20671;-82
2024/02/01 06:49:39;;;;;;;7.33;5.77;;;;;;;13.63;56.83;99930.38;6717147;29;20323;-82
2024/02/01 06:53:08;;;;;;;10.27;6.30;;;;;;;13.77;56.44;99916.72;6708420;29;20280;-82
2024/02/01 06:56:48;;;;;;;8.63;6.03;;;;;;;13.55;57.52;99946.78;6729580;29;20339;-82
2024/02/01 07:00:37;;;;;;;8.27;6.53;;;;;;;13.21;58.74;99942.09;6730351;29;20402;-82
2024/02/01 07:03:57;;;;;;;7.07;6.03;;;;;;;13.25;59.07;99954.25;6705018;29;20593;-82
2024/02/01 07:07:18;;;;;;;8.73;6.27;;;;;;;12.87;60.57;99955.47;6717117;29;20273;-82
2024/02/01 07:10:43;;;;;;;6.53;5.87;;;;;;;12.86;60.62;99955.69;6729393;29;20228;-82
2024/02/01 07:14:15;;;;;;;8.33;5.77;;;;;;;13.12;59.94;99947.84;6735311;29;20696;-80
2024/02/01 07:17:43;;;;;;;6.87;6.00;;;;;;;13.47;58.70;99938.81;6724084;29;20566;-80
2024/02/01 07:21:19;;;;;;;7.97;5.70;;;;;;;13.47;58.32;99928.81;6705551;29;20229;-81
2024/02/01 07:24:58;;;;;;;7.93;6.67;;;;;;;13.63;57.64;99931.22;6712881;29;20240;-80
2024/02/01 07:58:07;;;;;;;8.97;5.77;;;;;;;12.69;63.50;99944.22;6644984;29;20620;-80
2024/02/01 08:01:38;;;;;;;8.07;5.87;;;;;;;12.65;62.58;99925.88;6713929;29;20305;-80
2024/02/01 08:08:40;;;;;;;8.87;5.70;;;;;;;12.09;64.65;99967.19;6706048;29;20221;-81
2024/02/01 08:12:06;;;;;;;7.67;5.43;;;;;;;12.71;63.29;99954.88;6709723;29;20246;-81
2024/02/01 08:15:28;;;;;;;6.93;6.10;;;;;;;13.34;60.60;99974.72;6709888;29;20232;-82
2024/02/01 08:18:50;;;;;;;10.33;7.27;;;;;;;13.23;61.48;99969.81;6706705;29;20687;-81
2024/02/01 08:22:16;;;;;;;10.30;6.63;;;;;;;12.95;62.06;99954.53;6713418;29;20882;-82
2024/02/01 08:25:40;;;;;;;7.67;5.50;;;;;;;12.85;62.92;99953.97;6710277;29;20229;-82
2024/02/01 08:29:02;;;;;;;9.73;6.07;;;;;;;12.97;62.08;99972.28;6712204;29;20246;-81
2024/02/01 08:32:24;;;;;;;8.00;6.23;;;;;;;13.03;61.83;99959.81;6709810;29;20220;-81
2024/02/01 08:35:46;;;;;;;10.03;5.80;;;;;;;12.98;62.74;99982.06;6708366;29;20243;-81
2024/02/01 08:39:09;;;;;;;9.10;5.40;;;;;;;12.79;62.63;99976.41;6708402;29;20279;-80
2024/02/01 08:42:31;;;;;;;11.10;7.60;;;;;;;12.99;62.27;99974.81;6708728;29;20669;-80
2024/02/01 08:45:52;;;;;;;7.40;4.73;;;;;;;13.19;61.47;99986.66;6707605;29;20233;-81
2024/02/01 08:49:16;;;;;;;4.40;4.00;;;;;;;13.27;61.09;99978.44;6708101;29;20241;-80
2024/02/01 08:52:38;;;;;;;5.37;4.00;;;;;;;13.00;61.62;99984.59;6730082;29;20661;-80
2024/02/01 08:56:01;;;;;;;3.50;3.20;;;;;;;12.71;62.36;99974.66;6709447;29;20666;-80
2024/02/01 08:59:22;;;;;;;4.77;3.77;;;;;;;12.95;62.33;99995.13;6713992;29;20229;-81
2024/02/01 09:02:44;;;;;;;4.10;3.60;;;;;;;13.02;61.95;99999.63;6717663;29;20584;-81
2024/02/01 09:06:09;;;;;;;3.57;3.27;;;;;;;13.38;61.23;100003.13;6711476;29;20283;-81
2024/02/01 09:09:31;;;;;;;4.97;3.00;;;;;;;12.77;62.82;99983.88;6714921;29;20290;-80
2024/02/01 09:12:54;;;;;;;4.10;3.43;;;;;;;13.03;62.37;100000.44;6724817;29;20215;-81
2024/02/01 09:16:24;;;;;;;3.40;3.10;;;;;;;12.71;62.78;99984.66;6723031;29;20216;-81
2024/02/01 09:19:46;;;;;;;3.63;3.27;;;;;;;12.94;62.30;99996.16;6715242;29;20244;-81
2024/02/01 09:23:07;;;;;;;5.63;4.93;;;;;;;13.31;61.33;100020.34;6720099;29;20309;-81
2024/02/01 09:26:29;;;;;;;5.77;4.63;;;;;;;13.45;61.39;100019.44;6722478;29;20209;-80
2024/02/01 09:29:52;;;;;;;4.53;3.63;;;;;;;13.02;62.26;100013.16;6713804;29;20383;-79
2024/02/01 09:33:13;;;;;;;5.70;4.43;;;;;;;13.15;62.50;100021.41;6709537;29;20237;-79
2024/02/01 09:36:35;;;;;;;4.23;3.50;;;;;;;13.43;61.59;100016.06;6714844;29;20213;-78
2024/02/01 09:40:00;;;;;;;4.03;3.40;;;;;;;13.65;61.20;100017.75;6706869;29;20634;-80
2024/02/01 09:43:21;;;;;;;7.23;4.53;;;;;;;13.05;62.88;100031.72;6702193;29;20287;-79
2024/02/01 09:46:46;;;;;;;4.83;3.67;;;;;;;13.14;63.10;100035.16;6714103;29;20291;-79
2024/02/01 09:50:09;;;;;;;6.07;3.73;;;;;;;13.56;62.41;100027.03;6712024;29;20312;-80
2024/02/01 09:53:30;;;;;;;6.23;3.67;;;;;;;13.88;61.42;100030.06;6709191;29;20262;-79
2024/02/01 09:56:52;;;;;;;4.40;3.40;;;;;;;14.08;60.57;100033.75;6707263;29;20212;-79
2024/02/01 10:00:18;;;;;;;5.57;3.20;;;;;;;14.27;59.89;100040.38;6714596;29;20407;-78
2024/02/01 10:03:47;;;;;;;7.00;3.30;;;;;;;14.14;60.16;100023.97;6710276;29;20293;-79
2024/02/01 10:07:10;;;;;;;4.50;3.20;;;;;;;14.21;60.29;100041.19;6704390;29;20204;-80
2024/02/01 10:10:31;;;;;;;3.73;3.33;;;;;;;14.13;60.17;100034.00;6715429;29;20236;-78
2024/02/01 10:13:53;;;;;;;4.57;2.80;;;;;;;14.07;59.75;100042.06;6703600;29;20272;-78
2024/02/01 10:17:14;;;;;;;4.57;3.20;;;;;;;14.12;60.44;100037.75;6707771;29;20235;-77
2024/02/01 10:20:39;;;;;;;3.33;3.00;;;;;;;13.85;61.58;100046.69;6708011;29;20312;-79
2024/02/01 10:24:05;;;;;;;3.17;2.87;;;;;;;14.28;60.09;100031.22;6705497;29;20233;-80
2024/02/01 10:27:26;;;;;;;3.83;3.43;;;;;;;14.23;59.98;100037.19;6708294;29;20220;-80
2024/02/01 10:30:49;;;;;;;4.00;2.77;;;;;;;14.08;60.32;100041.03;6705801;29;20233;-78
2024/02/01 10:34:13;;;;;;;3.27;2.97;;;;;;;14.05;61.14;100019.75;6704446;29;20567;-80
2024/02/01 10:37:38;;;;;;;3.50;2.40;;;;;;;14.09;61.33;100040.03;6705252;29;20217;-79
2024/02/01 10:41:02;;;;;;;3.00;2.77;;;;;;;14.13;60.99;100016.88;6709282;29;20308;-80
2024/02/01 10:44:32;;;;;;;5.47;3.47;;;;;;;14.29;59.87;100022.03;6705949;29;20752;-79
2024/02/01 10:47:55;;;;;;;4.87;3.83;;;;;;;14.04;61.46;100023.50;6706811;29;20215;-78
2024/02/01 10:51:17;;;;;;;5.00;3.57;;;;;;;14.63;60.46;100017.41;6710780;29;20260;-82
2024/02/01 10:54:42;;;;;;;4.03;3.27;;;;;;;14.24;60.57;100009.06;6712414;29;20214;-79
2024/02/01 10:58:04;;;;;;;12.13;7.87;;;;;;;14.45;60.61;100022.53;6704459;29;20395;-78
2024/02/01 11:01:28;;;;;;;6.40;4.57;;;;;;;14.85;60.99;100018.97;6724492;29;20320;-79
2024/02/01 11:04:49;;;;;;;4.03;3.17;;;;;;;14.87;60.37;100018.78;6697535;29;20582;-81
2024/02/01 11:08:15;;;;;;;3.50;3.20;;;;;;;14.61;60.87;100013.22;6703711;29;20258;-82
2024/02/01 11:11:38;;;;;;;2.97;2.77;;;;;;;14.79;59.98;100008.91;6704034;29;20311;-80
2024/02/01 11:14:59;;;;;;;3.47;2.83;;;;;;;14.94;59.77;100011.47;6704531;29;20209;-81
2024/02/01 11:18:21;;;;;;;4.57;3.90;;;;;;;14.28;60.92;99998.66;6703729;29;20299;-80
2024/02/01 11:21:47;;;;;;;3.13;2.60;;;;;;;14.28;61.52;100004.88;6704665;29;20245;-80
2024/02/01 11:25:11;;;;;;;3.47;3.17;;;;;;;14.15;62.11;99998.53;6705562;29;20247;-79
2024/02/01 11:28:36;;;;;;;2.60;2.40;;;;;;;14.12;61.94;100009.78;6714872;29;20287;-78
2024/02/01 11:32:01;;;;;;;3.00;2.33;;;;;;;14.20;62.11;99999.63;6709726;29;20357;-79
2024/02/01 11:35:24;;;;;;;3.53;2.30;;;;;;;13.94;62.63;99995.88;6708569;29;20204;-79
2024/02/01 11:38:50;;;;;;;5.10;2.80;;;;;;;14.09;62.80;100004.75;6701289;29;20224;-78
2024/02/01 11:42:12;;;;;;;4.47;3.00;;;;;;;14.11;62.27;99998.06;6706020;29;20581;-79
2024/02/01 11:45:35;;;;;;;5.00;2.63;;;;;;;14.36;61.59;100002.03;6708829;29;20235;-80
2024/02/01 11:48:57;;;;;;;3.70;3.27;;;;;;;13.87;63.24;100001.25;6708432;29;20275;-79
2024/02/01 11:52:24;;;;;;;3.87;3.00;;;;;;;13.72;64.03;100005.09;6709440;29;20346;-79
2024/02/01 11:55:45;;;;;;;4.00;3.27;;;;;;;13.98;63.18;100006.13;6707880;29;20205;-80
2024/02/01 11:59:08;;;;;;;4.63;3.10;;;;;;;14.17;62.81;99994.56;6709334;29;20263;-79
2024/02/01 12:02:31;;;;;;;4.93;3.23;;;;;;;14.12;62.41;99979.94;6708315;29;20220;-77
2024/02/01 12:05:53;;;;;;;3.30;3.00;;;;;;;13.83;63.78;100005.41;6707293;29;20229;-79
2024/02/01 12:09:14;;;;;;;4.50;3.13;;;;;;;14.31;62.31;99992.81;6707081;29;20234;-79
2024/02/01 12:12:36;;;;;;;4.13;3.50;;;;;;;14.42;62.04;99998.53;6707890;29;20214;-78
2024/02/01 12:15:58;;;;;;;3.20;3.00;;;;;;;14.23;62.06;99982.13;6707808;29;20304;-79
2024/02/01 12:19:23;;;;;;;4.20;3.13;;;;;;;14.23;62.07;99982.13;6707251;29;20233;-79
2024/02/01 12:22:45;;;;;;;3.90;3.40;;;;;;;14.42;61.84;99997.66;6707099;29;20299;-79
2024/02/01 12:26:07;;;;;;;2.83;2.63;;;;;;;14.42;61.44;99978.69;6707598;29;20242;-80
2024/02/01 12:29:29;;;;;;;3.87;3.47;;;;;;;14.54;61.71;99994.19;6707830;29;20235;-79
2024/02/01 12:32:51;;;;;;;5.47;4.33;;;;;;;14.66;61.33;99970.00;6706917;29;20557;-79
2024/02/01 12:36:14;;;;;;;3.93;3.23;;;;;;;14.59;61.44;99983.59;6708691;29;20307;-79
2024/02/01 12:39:37;;;;;;;3.67;3.37;;;;;;;14.40;61.79;99978.06;6711576;29;20682;-79
2024/02/01 12:43:01;;;;;;;4.50;3.20;;;;;;;14.21;62.13;99974.19;6711853;29;20679;-79
2024/02/01 12:46:24;;;;;;;3.47;3.17;;;;;;;14.38;61.55;99978.25;6709870;29;20239;-79
2024/02/01 12:49:45;;;;;;;3.43;3.13;;;;;;;14.30;61.85;99983.84;6710452;29;20720;-79
2024/02/01 12:53:08;;;;;;;3.93;3.53;;;;;;;14.23;61.82;99985.66;6711601;29;20359;-78
2024/02/01 12:56:31;;;;;;;4.13;3.73;;;;;;;14.31;61.29;99980.09;6717482;29;20252;-79
2024/02/01 12:59:53;;;;;;;3.53;3.23;;;;;;;14.12;62.07;99998.91;6710545;29;20221;-79
2024/02/01 13:03:14;;;;;;;3.00;2.80;;;;;;;14.10;61.35;100009.97;6721594;29;20213;-79
2024/02/01 13:06:36;;;;;;;2.90;2.70;;;;;;;13.97;61.68;100015.31;6713333;29;20280;-78
2024/02/01 13:10:05;;;;;;;3.50;3.20;;;;;;;14.04;61.71;100010.75;6716217;29;20383;-79
2024/02/01 13:13:26;;;;;;;3.43;2.70;;;;;;;14.07;61.73;100021.22;6714627;29;20595;-79
2024/02/01 13:16:48;;;;;;;3.07;2.87;;;;;;;14.35;60.98;100007.66;6721925;29;20216;-79
2024/02/01 13:20:19;;;;;;;3.40;3.10;;;;;;;14.18;61.15;100009.81;6723853;29;20238;-80
2024/02/01 13:23:41;;;;;;;3.53;3.10;;;;;;;14.08;61.21;100024.75;6716122;29;20686;-80
2024/02/01 13:27:04;;;;;;;3.53;3.23;;;;;;;14.22;61.35;100010.28;6713556;29;20232;-80
2024/02/01 13:30:26;;;;;;;4.17;3.50;;;;;;;14.54;59.92;99988.78;6718111;29;20244;-79
2024/02/01 13:33:47;;;;;;;3.27;3.00;;;;;;;14.24;60.75;100006.34;6714063;29;20218;-79
2024/02/01 13:37:11;;;;;;;4.67;3.07;;;;;;;14.26;60.84;100003.41;6723276;29;20654;-79
2024/02/01 13:40:33;;;;;;;3.87;3.57;;;;;;;14.23;60.21;99990.25;6716148;29;20245;-80
2024/02/01 13:43:58;;;;;;;3.90;3.60;;;;;;;14.22;60.64;100018.44;6725281;29;20660;-79
2024/02/01 13:47:22;;;;;;;3.87;3.57;;;;;;;14.11;61.00;100018.94;6723652;29;20269;-78
2024/02/01 13:50:44;;;;;;;4.07;3.67;;;;;;;14.36;60.24;100012.91;6722582;29;20241;-80
2024/02/01 13:54:05;;;;;;;4.03;3.73;;;;;;;14.45;60.23;100017.09;6714873;29;20274;-79
2024/02/01 13:57:27;;;;;;;4.77;4.33;;;;;;;14.40;60.56;100027.72;6711502;29;20208;-79
2024/02/01 14:00:50;;;;;;;4.47;4.07;;;;;;;14.46;60.13;100010.63;6716134;29;20234;-79
2024/02/01 14:04:12;;;;;;;4.83;4.43;;;;;;;14.20;60.54;100001.50;6723049;29;20223;-79
2024/02/01 14:07:33;;;;;;;4.40;3.93;;;;;;;14.47;60.36;100019.63;6709342;29;20297;-79
2024/02/01 14:10:56;;;;;;;4.03;3.73;;;;;;;14.22;60.59;100021.16;6720864;29;20331;-80
2024/02/01 14:14:17;;;;;;;7.37;4.57;;;;;;;14.39;60.03;100020.63;6721313;29;20411;-78
2024/02/01 14:17:40;;;;;;;4.30;3.93;;;;;;;14.81;58.99;100033.97;6719008;29;20209;-78
2024/02/01 14:21:03;;;;;;;5.87;5.27;;;;;;;14.81;58.90;100025.84;6712593;29;20770;-79
2024/02/01 14:24:25;;;;;;;4.70;4.30;;;;;;;14.38;59.42;100018.94;6704472;29;20194;-78
2024/02/01 14:27:46;;;;;;;4.90;4.50;;;;;;;14.25;59.86;100037.00;6703123;29;20296;-79
2024/02/01 14:31:08;;;;;;;4.83;4.40;;;;;;;14.21;60.42;100038.47;6717393;29;20273;-79
2024/02/01 14:34:31;;;;;;;5.10;4.70;;;;;;;13.97;61.51;100041.56;6719962;29;20275;-79
2024/02/01 14:37:55;;;;;;;4.93;4.43;;;;;;;14.17;61.39;100042.56;6713590;29;20244;-78
2024/02/01 14:41:16;;;;;;;7.77;6.57;;;;;;;14.18;61.34;100050.50;6708597;29;20243;-79
2024/02/01 14:44:38;;;;;;;6.33;5.73;;;;;;;14.00;62.00;100052.03;6705492;29;20385;-79
2024/02/01 14:48:01;;;;;;;5.93;5.33;;;;;;;13.65;62.78;100047.56;6713091;29;20215;-79
2024/02/01 14:51:24;;;;;;;6.27;5.77;;;;;;;14.02;62.36;100072.50;6707062;29;20226;-78
2024/02/01 14:54:48;;;;;;;8.07;6.53;;;;;;;14.10;62.41;100063.38;6710713;29;20205;-78
2024/02/01 14:58:10;;;;;;;6.90;6.30;;;;;;;13.84;62.73;100055.88;6711418;29;20214;-78
2024/02/01 15:01:31;;;;;;;7.67;6.67;;;;;;;14.23;61.85;100068.94;6710809;29;20231;-79
2024/02/01 15:05:04;;;;;;;6.77;6.17;;;;;;;14.22;62.17;100075.41;6703131;29;20232;-78
2024/02/01 15:08:28;;;;;;;8.33;7.53;;;;;;;14.32;61.77;100071.28;6703270;29;20274;-78
2024/02/01 15:11:49;;;;;;;14.67;11.30;;;;;;;14.20;61.86;100055.75;6703344;29;20296;-79
2024/02/01 15:15:12;;;;;;;10.63;9.57;;;;;;;14.59;60.99;100073.16;6709078;29;20235;-79
2024/02/01 15:18:36;;;;;;;11.07;9.63;;;;;;;14.30;61.62;100080.66;6698589;29;20243;-79
2024/02/01 15:21:59;;;;;;;8.57;7.53;;;;;;;14.01;61.90;100073.53;6687280;29;20730;-79
2024/02/01 15:25:22;;;;;;;10.87;9.87;;;;;;;14.21;62.21;100077.25;6704713;29;20385;-78
2024/02/01 15:28:46;;;;;;;10.43;9.43;;;;;;;14.07;62.31;100067.34;6691057;29;20715;-79
2024/02/01 15:32:08;;;;;;;12.07;9.00;;;;;;;13.74;63.19;100084.34;6702563;29;20210;-78
2024/02/01 15:35:32;;;;;;;16.10;8.80;;;;;;;13.64;63.72;100081.13;6715826;29;20209;-79
2024/02/01 15:38:53;;;;;;;18.13;10.27;;;;;;;13.19;65.00;100078.75;6702446;29;20316;-79
2024/02/01 15:42:16;;;;;;;17.23;10.40;;;;;;;13.64;64.07;100094.66;6700419;29;20240;-79
2024/02/01 15:45:38;;;;;;;11.17;8.27;;;;;;;13.54;64.15;100078.72;6707574;29;20830;-79
2024/02/01 15:49:00;;;;;;;11.57;9.53;;;;;;;13.95;62.81;100068.91;6697199;29;20229;-80
2024/02/01 15:52:22;;;;;;;10.97;8.40;;;;;;;13.65;63.14;100070.09;6705240;29;20270;-79
2024/02/01 15:55:43;;;;;;;13.40;11.27;;;;;;;14.05;62.28;100076.69;6706072;29;20239;-79
2024/02/01 15:59:06;;;;;;;13.87;9.37;;;;;;;14.21;62.05;100085.41;6702738;29;20381;-80
2024/02/01 16:02:28;;;;;;;13.13;11.07;;;;;;;14.08;62.00;100084.41;6703258;29;20209;-80
2024/02/01 16:06:04;;;;;;;14.97;10.07;;;;;;;14.17;61.91;100089.50;6701098;29;20232;-79
2024/02/01 16:09:26;;;;;;;12.07;10.77;;;;;;;14.25;61.54;100088.56;6694635;29;20686;-79
2024/02/01 16:12:53;;;;;;;18.27;16.47;;;;;;;14.18;61.51;100095.78;6702231;29;20342;-79
2024/02/01 16:16:38;;;;;;;11.17;10.07;;;;;;;14.23;61.08;100072.47;6714996;29;20289;-79
2024/02/01 16:19:59;;;;;;;11.33;9.63;;;;;;;14.19;60.74;100092.06;6705314;29;20749;-79
2024/02/01 16:23:22;;;;;;;10.60;9.53;;;;;;;14.16;60.75;100092.44;6712325;29;20246;-79